,

Gran Carrera del equipo Antolín en el Gálvez. Matías 4º y Gonzalo 7º

Pasó la quinta fecha del campeonato Nacional de Turismo Pista en su Clase 3, y nuevamente los pilotos que representan al departamento, los pilotos del pueblo lograron muy buenas actuaciones.

Matías finalizó 4º y Gonzalo luego de largar 11º y de una gran remontada, en la última vuelta se le corrió el auto y del 5º pasó al 7º lugar, de todas maneras una gran actuación de todo el equipo que mete los dos autos en el Top 7.

En la largada Matías salió decidido a meterse más arriba de su cuarto puesto de largada pero los autos de adelante no selo permitieron. En la vuelta 2 Gonzalo ya había ganado un lugar y estaba 8º.

Una vuelta más tarde Talamona quedó segundo y González pasó a Matías que relegó un lugar y quedó 5º. Gonzalo seguía avanzando y ya estaba 7º.

En la vuelta cuatro, Gonzalo se puso al frente del segundo pelotón, pasó el kinetic de Bodrato Mionetto, se ubicó 6º en la carrera, detrás de su hermano Matías y parecía que estaba para más.

Las cosas no cambiaron durante varias vueltas y en la 11º entró el auto de seguridad, neutralizando la competencia una vuelta, retomando al transcurrir el 12º giro. Una mala maniobra de D’Agostino tocó el barro y se le cruzo el auto que terminó afuera de pista y lo aprovecharon Matías y Gonzalo que se metieron en el 4º y 5º lugar respectivamente.

No iba a durar mucho, en la vuelta final, Baliñas y Sniechowski superaron a Gonzalo que terminó en el 7º lugar, Matías coronando un muy buen fin de semana mantuvo su lugar de largada (4º) sumando nuevos puntos para el campeonato.

Por Fabián Segura/Toquedeportivo.com
Posiciones finales
Pos No. Name Laps Total time Diff Best time In lap Best speed
1 4 LUCAS YEROBI 16 25:25.643 01:30.194 4 133.832
2 111 MARCELO GONZALEZ 16 25:27.003 00:01.360 01:30.061 2 134.029
3 8 JUAN TALAMONA 16 25:27.819 00:02.176 01:30.158 2 133.885
4 3 MATIAS ANTOLIN 16 25:28.240 00:02.597 01:30.158 2 133.885
5 117 JORGE BALIÑAS 16 25:30.797 00:05.154 01:30.421 13 133.496
6 60 TOMAS SNIECHOWSKI 16 25:31.237 00:05.594 01:30.688 4 133.103
7 94 GONZALO ANTOLIN 16 25:31.987 00:06.344 01:30.280 13 133.704
8 6 MARCOS D´AGOSTINO 16 25:32.314 00:06.671 01:30.110 2 133.956
9 93 LUCAS BAGNERA 16 25:32.661 00:07.018 01:30.933 6 132.744
10 11 MARTIN BADARACCO 16 25:32.818 00:07.175 01:30.857 6 132.855
11 9  BODRATO MIONETTO 16 25:34.609 00:08.966 01:31.175 3 132.392
12 113 LUIS BESSONE 16 25:34.882 00:09.239 01:30.830 10 132.894
13 114 MATIAS SIGNORELLI 16 25:35.135 00:09.492 01:31.244 15 132.291
14 23 LEANDRO RAMA 16 25:36.072 00:10.429 01:30.893 4 132.802
15 48 GUSTAVO LUQUES 16 25:37.009 00:11.366 01:30.885 6 132.814
16 116 ANDRES D´AMICO 16 25:37.802 00:12.159 01:31.114 8 132.480
17 13 FEDERICO SANTOS 16 25:38.822 00:13.179 01:31.431 5 132.021
18 27 JUAN DAMIANI 16 25:39.805 00:14.162 01:31.748 6 131.565
19 14 JUAN KREITZ 16 25:41.864 00:16.221 01:31.623 6 131.744
20 12 FERNANDO MONI 16 25:42.477 00:16.834 01:31.525 6 131.885
21 17 MAURO SALVI 16 25:42.763 00:17.120 01:30.687 4 133.104
22 92 PABLO VUYOVICH 16 25:43.016 00:17.373 01:31.299 6 132.212
23 40 JORGE POSSIEL 16 25:43.352 00:17.709 01:31.491 6 131.934
24 30 PABLO COLLAZO (H) 16 25:45.438 00:19.795 01:31.995 4 131.211
25 22 DINO CASSIANO 16 25:47.747 00:22.104 01:31.543 3 131.859
26 7 RAMIRO ALCAINE 16 25:50.441 00:24.798 01:31.765 13 131.540
27 75 JUAN M. MACHADO 16 25:54.363 00:28.720 01:33.386 13 129.257
28 34 JUAN ANGEL FERRETI 15 25:57.124 1 Lap 01:33.351 4 129.306